Time;durP1;ratioP1;P1;durP2;ratioP2;P2;SDS_P1;SDS_P2;PMS_P1;PMS_P2;Temp;Humidity;BMP_temperature;BMP_pressure;BME280_temperature;BME280_humidity;BME280_pressure;Samples;Min_cycle;Max_cycle;Signal;HPM_P1;HPM_P2
2022/01/17 00:00:17;;;;;;;20.80;3.73;;;5.50;99.90;;;;;;6098527;23;20026;-32
2022/01/17 00:02:43;;;;;;;17.63;3.35;;;5.50;99.90;;;;;;6122569;23;20327;-31
2022/01/17 00:05:14;;;;;;;18.00;3.47;;;5.50;99.90;;;;;;6124691;23;20021;-31
2022/01/17 00:07:40;;;;;;;25.67;4.03;;;5.40;99.90;;;;;;6111382;23;20021;-31
2022/01/17 00:10:07;;;;;;;16.07;3.77;;;5.40;99.90;;;;;;6124988;23;20018;-32
2022/01/17 00:12:39;;;;;;;25.97;4.13;;;5.40;99.90;;;;;;6123903;23;20037;-32
2022/01/17 00:15:41;;;;;;;17.43;3.40;;;5.40;99.90;;;;;;6127078;23;20048;-32
2022/01/17 00:20:45;;;;;;;19.67;3.70;;;5.40;99.90;;;;;;6124553;23;20030;-33
2022/01/17 00:23:11;;;;;;;19.00;3.80;;;5.40;99.90;;;;;;6098192;23;20472;-32
2022/01/17 00:25:44;;;;;;;20.43;3.63;;;5.40;99.90;;;;;;6125259;23;20030;-32
2022/01/17 00:28:13;;;;;;;23.70;4.07;;;5.30;99.90;;;;;;6101746;23;20105;-32
2022/01/17 00:30:40;;;;;;;21.67;3.97;;;5.30;99.90;;;;;;6146530;23;20026;-32
2022/01/17 00:33:06;;;;;;;18.83;3.93;;;5.30;99.90;;;;;;6123887;23;20045;-32
2022/01/17 00:35:32;;;;;;;20.03;3.90;;;5.30;99.90;;;;;;6124792;23;20061;-32
2022/01/17 00:38:06;;;;;;;30.43;4.27;;;5.30;99.90;;;;;;6061074;23;20074;-33
2022/01/17 00:40:42;;;;;;;22.80;4.60;;;5.30;99.90;;;;;;6127173;23;20026;-31
2022/01/17 00:43:42;;;;;;;25.35;4.25;;;5.30;99.90;;;;;;6109264;23;20092;-33
2022/01/17 00:46:09;;;;;;;29.25;4.07;;;5.30;99.90;;;;;;6119481;23;20032;-30
2022/01/17 00:48:37;;;;;;;30.63;4.50;;;5.30;99.90;;;;;;6092718;23;20194;-32
2022/01/17 00:51:09;;;;;;;30.10;4.13;;;5.30;99.90;;;;;;6126484;23;20018;-32
2022/01/17 00:53:37;;;;;;;30.70;4.17;;;5.20;99.90;;;;;;6114356;23;20025;-33
2022/01/17 00:56:04;;;;;;;20.03;3.67;;;5.20;99.90;;;;;;6075956;23;20053;-33
2022/01/17 00:58:32;;;;;;;20.73;3.60;;;5.20;99.90;;;;;;6108018;23;20041;-32
2022/01/17 01:01:02;;;;;;;;;;;5.20;99.90;;;;;;6146696;23;20049;-33
2022/01/17 01:03:29;;;;;;;23.17;4.20;;;5.10;99.90;;;;;;6124122;23;19920;-32
2022/01/17 01:05:57;;;;;;;20.77;4.13;;;5.20;99.90;;;;;;6126819;23;20025;-31
2022/01/17 01:08:25;;;;;;;19.30;3.93;;;5.10;99.90;;;;;;6109380;23;20030;-31
2022/01/17 01:10:57;;;;;;;20.23;3.53;;;5.10;99.90;;;;;;6124402;23;20022;-31
2022/01/17 01:13:36;;;;;;;24.83;4.27;;;5.10;99.90;;;;;;6121574;23;20030;-32
2022/01/17 01:16:37;;;;;;;17.40;3.43;;;5.10;99.90;;;;;;6114279;23;20445;-31
2022/01/17 01:19:28;;;;;;;23.87;4.13;;;5.10;99.90;;;;;;6123404;23;20358;-31
2022/01/17 01:28:05;;;;;;;20.83;3.57;;;5.10;99.90;;;;;;6094929;23;20034;-32
2022/01/17 01:30:34;;;;;;;22.73;3.93;;;5.00;99.90;;;;;;6125338;23;20030;-32
2022/01/17 01:33:02;;;;;;;27.07;4.27;;;5.10;99.90;;;;;;6086704;23;20363;-31
2022/01/17 01:35:46;;;;;;;23.90;3.70;;;5.00;99.90;;;;;;6104442;23;20477;-32
2022/01/17 01:38:19;;;;;;;24.50;3.47;;;5.00;99.90;;;;;;6085574;23;20353;-31
2022/01/17 01:40:45;;;;;;;20.60;3.90;;;5.00;99.90;;;;;;6100344;23;20034;-31
2022/01/17 01:43:11;;;;;;;26.00;3.93;;;5.00;99.90;;;;;;6125670;23;20036;-31
2022/01/17 01:45:37;;;;;;;29.60;4.33;;;5.10;99.90;;;;;;6127076;23;20073;-32
2022/01/17 01:48:05;;;;;;;26.03;3.77;;;5.00;99.90;;;;;;6085568;23;20026;-34
2022/01/17 01:50:31;;;;;;;20.63;3.93;;;5.00;99.90;;;;;;6076627;23;20403;-32
2022/01/17 01:52:57;;;;;;;24.13;3.83;;;5.00;99.90;;;;;;6098522;23;20021;-32
2022/01/17 01:55:23;;;;;;;17.93;3.63;;;5.00;99.90;;;;;;6076344;23;20028;-32
2022/01/17 01:57:50;;;;;;;22.40;3.80;;;5.00;99.90;;;;;;6061185;23;20025;-32
2022/01/17 02:00:18;;;;;;;23.43;4.17;;;5.00;99.90;;;;;;6076532;23;20021;-31
2022/01/17 02:02:47;;;;;;;;;;;5.00;99.90;;;;;;6099160;23;20021;-32
2022/01/17 02:05:13;;;;;;;21.43;3.70;;;5.00;99.90;;;;;;6099834;23;20272;-32
2022/01/17 02:07:45;;;;;;;25.97;3.67;;;5.00;99.90;;;;;;6084473;23;20014;-32
2022/01/17 02:10:12;;;;;;;26.33;4.37;;;5.00;99.90;;;;;;6100604;23;20481;-32
2022/01/17 02:12:39;;;;;;;24.23;4.57;;;4.90;99.90;;;;;;6098866;23;20089;-32
2022/01/17 02:15:10;;;;;;;21.03;3.90;;;4.90;99.90;;;;;;6099854;23;20035;-32
2022/01/17 02:17:46;;;;;;;22.95;3.85;;;4.90;99.90;;;;;;6106221;23;21078;-32
2022/01/17 02:20:21;;;;;;;17.30;3.43;;;4.90;99.90;;;;;;6126222;23;20026;-32
2022/01/17 02:22:48;;;;;;;25.60;4.20;;;4.90;99.90;;;;;;6124335;23;20462;-32
2022/01/17 02:25:19;;;;;;;27.93;4.10;;;4.80;99.90;;;;;;6126670;23;20077;-31
2022/01/17 02:27:46;;;;;;;22.30;4.53;;;4.90;99.90;;;;;;6111549;23;20353;-32
2022/01/17 02:30:21;;;;;;;23.90;3.73;;;4.80;99.90;;;;;;6125030;23;20022;-31
2022/01/17 02:32:55;;;;;;;24.47;3.90;;;4.80;99.90;;;;;;6125473;23;20029;-31
2022/01/17 02:35:23;;;;;;;22.60;3.83;;;4.80;99.90;;;;;;6099985;23;20022;-30
2022/01/17 02:37:51;;;;;;;25.03;4.07;;;4.80;99.90;;;;;;6112166;23;20103;-31
2022/01/17 02:40:22;;;;;;;19.05;3.65;;;4.80;99.90;;;;;;6125551;23;20497;-33
2022/01/17 02:43:03;;;;;;;24.57;4.17;;;4.80;99.90;;;;;;6122855;23;20018;-31
2022/01/17 02:45:38;;;;;;;27.10;4.17;;;4.80;99.90;;;;;;6125622;23;20092;-32
2022/01/17 02:48:11;;;;;;;24.90;3.87;;;4.90;99.90;;;;;;6083481;23;20026;-31
2022/01/17 02:50:44;;;;;;;20.50;3.47;;;4.90;99.90;;;;;;6146234;23;20705;-32
2022/01/17 02:53:20;;;;;;;25.07;4.33;;;4.90;99.90;;;;;;6123875;23;20222;-33
2022/01/17 02:55:50;;;;;;;22.80;3.63;;;4.90;99.90;;;;;;6125819;23;20559;-33
2022/01/17 02:58:21;;;;;;;17.83;3.87;;;4.90;99.90;;;;;;6111805;23;20108;-32
2022/01/17 03:00:50;;;;;;;26.93;4.17;;;4.90;99.90;;;;;;6126725;23;20089;-31
2022/01/17 03:03:26;;;;;;;21.50;3.33;;;4.90;99.90;;;;;;6122696;23;20077;-32
2022/01/17 03:05:55;;;;;;;28.77;4.70;;;5.00;99.90;;;;;;6124023;23;20018;-32
2022/01/17 03:08:23;;;;;;;26.23;4.90;;;5.00;99.90;;;;;;6109413;23;20686;-32
2022/01/17 03:10:50;;;;;;;21.50;3.80;;;5.00;99.90;;;;;;6099384;23;20025;-32
2022/01/17 03:13:19;;;;;;;32.27;4.20;;;5.00;99.90;;;;;;6122131;23;20061;-30
2022/01/17 03:15:53;;;;;;;19.57;3.93;;;5.00;99.90;;;;;;6123459;23;20021;-31
2022/01/17 03:18:19;;;;;;;23.30;4.03;;;5.00;99.90;;;;;;6107928;23;20093;-32
2022/01/17 03:20:51;;;;;;;26.37;4.33;;;5.00;99.90;;;;;;6099009;23;20022;-32
2022/01/17 03:23:17;;;;;;;25.90;3.53;;;5.00;99.90;;;;;;6122173;23;20018;-32
2022/01/17 03:25:46;;;;;;;26.27;3.87;;;5.10;99.90;;;;;;6148530;23;20025;-32
2022/01/17 03:28:15;;;;;;;23.97;3.53;;;5.10;99.90;;;;;;6111102;23;20074;-31
2022/01/17 03:30:42;;;;;;;21.83;3.33;;;5.10;99.90;;;;;;6098405;23;20025;-30
2022/01/17 03:33:11;;;;;;;22.00;3.43;;;5.10;99.90;;;;;;6097599;23;20045;-32
2022/01/17 03:35:38;;;;;;;19.67;3.57;;;5.10;99.90;;;;;;6098335;23;20045;-32
2022/01/17 03:38:09;;;;;;;19.87;3.27;;;5.10;99.90;;;;;;6112419;23;20060;-31
2022/01/17 03:40:36;;;;;;;19.33;3.93;;;5.10;99.90;;;;;;6074689;23;20014;-31
2022/01/17 03:43:02;;;;;;;22.60;3.90;;;5.10;99.90;;;;;;6095897;23;20258;-31
2022/01/17 03:45:30;;;;;;;26.07;4.00;;;5.20;99.90;;;;;;6121872;23;20045;-31
2022/01/17 03:47:58;;;;;;;22.70;3.87;;;5.20;99.90;;;;;;6078792;23;20029;-32
2022/01/17 03:50:33;;;;;;;21.47;3.40;;;5.20;99.90;;;;;;6124114;23;20053;-32
2022/01/17 03:53:00;;;;;;;29.30;4.10;;;5.20;99.90;;;;;;6120504;23;20521;-31
2022/01/17 03:55:34;;;;;;;23.73;4.07;;;5.20;99.90;;;;;;6123244;23;20022;-31
2022/01/17 03:58:17;;;;;;;23.03;3.77;;;5.30;99.90;;;;;;6101799;23;20402;-31
2022/01/17 04:00:46;;;;;;;17.27;3.33;;;5.30;99.90;;;;;;6119981;23;20025;-31
2022/01/17 04:03:21;;;;;;;22.67;3.30;;;5.30;99.90;;;;;;6119445;23;20077;-32
2022/01/17 04:05:47;;;;;;;18.87;3.70;;;5.30;99.90;;;;;;6095306;23;20030;-31
2022/01/17 04:08:24;;;;;;;17.77;3.33;;;5.30;99.90;;;;;;6093583;23;20081;-32
2022/01/17 04:10:49;;;;;;;19.50;4.15;;;5.30;99.90;;;;;;6098490;23;20096;-31
2022/01/17 04:13:16;;;;;;;25.23;4.00;;;5.40;99.90;;;;;;6120312;23;20688;-32
2022/01/17 04:15:44;;;;;;;26.63;4.20;;;5.30;99.90;;;;;;6124538;23;20029;-32
2022/01/17 04:18:23;;;;;;;21.53;3.90;;;5.30;99.90;;;;;;6094572;23;20461;-31
2022/01/17 04:20:50;;;;;;;16.37;3.27;;;5.30;99.90;;;;;;6099065;23;20354;-31
2022/01/17 04:23:18;;;;;;;20.60;3.40;;;5.30;99.90;;;;;;6073645;23;20030;-31
2022/01/17 04:25:45;;;;;;;18.20;3.53;;;5.30;99.90;;;;;;6097585;23;20089;-32
2022/01/17 04:28:14;;;;;;;24.43;3.77;;;5.40;99.90;;;;;;6099635;23;20026;-30
2022/01/17 04:30:43;;;;;;;22.77;4.00;;;5.40;99.90;;;;;;6122956;23;20048;-31
2022/01/17 04:33:10;;;;;;;17.83;4.10;;;5.40;99.90;;;;;;6120497;23;20092;-32
2022/01/17 04:35:36;;;;;;;18.20;3.90;;;5.40;99.90;;;;;;6122649;23;20025;-32
2022/01/17 04:38:06;;;;;;;22.53;3.87;;;5.40;99.90;;;;;;6112665;23;20025;-32
2022/01/17 04:40:37;;;;;;;22.57;3.73;;;5.40;99.90;;;;;;6123856;23;20022;-32
2022/01/17 04:43:14;;;;;;;25.73;4.30;;;5.50;99.90;;;;;;6144995;23;20461;-31
2022/01/17 04:45:39;;;;;;;24.83;4.50;;;5.50;99.90;;;;;;6123544;23;20032;-31
2022/01/17 04:48:06;;;;;;;32.37;4.90;;;5.50;99.90;;;;;;6109069;23;20054;-32
2022/01/17 04:50:32;;;;;;;22.80;4.50;;;5.50;99.90;;;;;;6098286;23;20018;-31
2022/01/17 04:53:00;;;;;;;24.57;4.20;;;5.60;99.90;;;;;;6123562;23;20350;-32
2022/01/17 04:55:29;;;;;;;19.30;4.23;;;5.60;99.90;;;;;;6123113;23;20454;-31
2022/01/17 04:57:59;;;;;;;27.30;5.13;;;5.60;99.90;;;;;;6105450;23;20014;-32
2022/01/17 05:00:31;;;;;;;23.53;4.70;;;5.60;99.90;;;;;;6072937;23;20018;-32
2022/01/17 05:03:15;;;;;;;24.10;4.73;;;5.60;99.90;;;;;;6123388;23;20018;-32
2022/01/17 05:05:41;;;;;;;26.87;4.63;;;5.70;99.90;;;;;;6097501;23;20050;-31
2022/01/17 05:08:08;;;;;;;29.07;4.17;;;5.70;99.90;;;;;;6101432;23;20496;-32
2022/01/17 05:10:42;;;;;;;24.07;4.07;;;5.70;99.90;;;;;;6124098;23;20026;-31
2022/01/17 05:13:15;;;;;;;22.47;4.33;;;5.70;99.90;;;;;;6118660;23;20018;-31
2022/01/17 05:15:48;;;;;;;27.83;5.22;;;5.70;99.90;;;;;;6098002;23;20026;-31
2022/01/17 05:21:08;;;;;;;33.13;5.72;;;5.80;99.90;;;;;;6145374;23;20418;-31
2022/01/17 05:23:34;;;;;;;27.67;5.40;;;5.80;99.90;;;;;;6120485;23;20025;-33
2022/01/17 05:26:03;;;;;;;30.57;5.67;;;5.80;99.90;;;;;;6099737;23;20026;-31
2022/01/17 05:28:44;;;;;;;22.97;4.93;;;5.90;99.90;;;;;;6114485;23;20034;-32
2022/01/17 05:31:15;;;;;;;25.50;5.17;;;5.90;99.90;;;;;;6099403;23;20417;-31
2022/01/17 05:33:56;;;;;;;25.17;4.87;;;5.90;99.90;;;;;;6096914;23;20565;-31
2022/01/17 05:36:26;;;;;;;34.10;5.47;;;5.90;99.90;;;;;;6114199;23;20029;-32
2022/01/17 05:38:53;;;;;;;28.97;5.40;;;5.90;99.90;;;;;;6094644;23;20022;-32
2022/01/17 05:41:20;;;;;;;27.43;5.33;;;5.90;99.90;;;;;;6122265;23;20022;-31
2022/01/17 05:43:46;;;;;;;26.30;5.80;;;5.90;99.90;;;;;;6096388;23;20053;-31
2022/01/17 05:46:12;;;;;;;32.40;5.50;;;5.90;99.90;;;;;;6091265;23;20037;-32
2022/01/17 05:48:39;;;;;;;30.23;5.43;;;5.90;99.90;;;;;;6103849;23;20042;-32
2022/01/17 05:51:05;;;;;;;23.47;5.40;;;5.90;99.90;;;;;;6094923;23;20053;-32
2022/01/17 05:53:36;;;;;;;29.00;5.43;;;6.00;99.90;;;;;;6123028;23;20366;-31
2022/01/17 05:56:02;;;;;;;29.20;5.60;;;6.00;99.90;;;;;;6099510;23;20406;-31
2022/01/17 05:58:28;;;;;;;26.87;5.60;;;6.00;99.90;;;;;;6082691;23;20069;-31
2022/01/17 06:01:00;;;;;;;31.70;5.93;;;6.00;99.90;;;;;;6124387;23;20076;-31
2022/01/17 06:03:27;;;;;;;30.70;5.10;;;6.00;99.90;;;;;;6122443;23;20037;-32
2022/01/17 06:05:55;;;;;;;29.03;5.97;;;6.00;99.90;;;;;;6123604;23;20317;-32
2022/01/17 06:08:21;;;;;;;27.23;5.60;;;6.00;99.90;;;;;;6083755;23;20061;-31
2022/01/17 06:10:46;;;;;;;30.80;5.27;;;6.00;99.90;;;;;;6116816;23;20092;-32
2022/01/17 06:13:12;;;;;;;28.33;6.30;;;6.00;99.90;;;;;;6088566;23;20033;-32
2022/01/17 06:15:38;;;;;;;28.00;5.63;;;6.00;99.90;;;;;;6116687;23;20047;-31
2022/01/17 06:18:03;;;;;;;31.93;5.50;;;6.00;99.90;;;;;;6071750;23;20700;-31
2022/01/17 06:20:32;;;;;;;37.30;5.90;;;6.00;99.90;;;;;;6117261;23;20085;-31
2022/01/17 06:22:59;;;;;;;29.73;5.57;;;6.00;99.90;;;;;;6115961;23;20026;-32
2022/01/17 06:25:31;;;;;;;26.63;5.93;;;6.00;99.90;;;;;;6117246;23;20022;-32
2022/01/17 06:27:57;;;;;;;28.10;5.97;;;6.10;99.90;;;;;;6100619;23;20046;-30
2022/01/17 06:30:25;;;;;;;37.27;6.73;;;6.10;99.90;;;;;;6118326;23;20030;-31
2022/01/17 06:33:18;;;;;;;37.77;6.80;;;6.10;99.90;;;;;;6120005;23;20104;-32
2022/01/17 06:35:45;;;;;;;36.00;6.30;;;6.00;99.90;;;;;;6125613;23;20018;-31
2022/01/17 06:38:29;;;;;;;39.80;6.10;;;6.10;99.90;;;;;;6111114;23;20080;-33
2022/01/17 06:41:07;;;;;;;34.87;6.13;;;6.10;99.90;;;;;;6126110;23;20022;-32
2022/01/17 06:43:41;;;;;;;31.43;6.33;;;6.10;99.90;;;;;;6123235;23;20350;-34
2022/01/17 06:46:07;;;;;;;37.60;6.47;;;6.10;99.90;;;;;;6119962;23;20481;-31
2022/01/17 06:48:34;;;;;;;38.03;6.60;;;6.10;99.90;;;;;;6075496;23;20026;-33
2022/01/17 06:51:14;;;;;;;32.17;5.77;;;6.10;99.90;;;;;;6124111;23;20462;-32
2022/01/17 06:53:42;;;;;;;44.67;6.67;;;6.10;99.90;;;;;;6099011;23;20025;-32
2022/01/17 06:56:34;;;;;;;35.97;6.50;;;6.10;99.90;;;;;;6110710;23;20049;-31
2022/01/17 06:59:10;;;;;;;38.63;6.90;;;6.10;99.90;;;;;;6122259;23;20339;-31
2022/01/17 07:01:38;;;;;;;38.93;7.03;;;6.10;99.90;;;;;;6125275;23;20267;-31
2022/01/17 07:04:06;;;;;;;37.33;7.30;;;6.20;99.90;;;;;;6123862;23;20033;-31
2022/01/17 07:06:47;;;;;;;36.67;7.07;;;6.20;99.90;;;;;;6111383;23;20033;-31
2022/01/17 07:09:16;;;;;;;35.60;6.47;;;6.20;99.90;;;;;;6124926;23;20022;-32
2022/01/17 07:11:53;;;;;;;35.87;6.40;;;6.20;99.90;;;;;;6123151;23;20472;-32
2022/01/17 07:14:21;;;;;;;34.23;6.73;;;6.20;99.90;;;;;;6123375;23;20056;-32
2022/01/17 07:16:53;;;;;;;43.00;6.70;;;6.20;99.90;;;;;;6083939;23;20029;-31
2022/01/17 07:19:19;;;;;;;46.53;7.67;;;6.20;99.90;;;;;;6124027;23;20030;-31
2022/01/17 07:21:51;;;;;;;34.70;6.70;;;6.30;99.90;;;;;;6124930;23;20018;-32
2022/01/17 07:24:20;;;;;;;40.73;7.07;;;6.30;99.90;;;;;;6097659;23;20640;-32
2022/01/17 07:27:00;;;;;;;44.83;6.87;;;6.30;99.90;;;;;;6108302;23;20028;-31
2022/01/17 07:29:51;;;;;;;40.60;6.63;;;6.30;99.90;;;;;;6073259;23;20036;-31
2022/01/17 07:32:23;;;;;;;39.30;6.93;;;6.30;99.90;;;;;;6097817;23;20081;-31
2022/01/17 07:34:52;;;;;;;37.57;6.97;;;6.40;99.90;;;;;;6127485;23;20028;-32
